Time;durP1;ratioP1;P1;durP2;ratioP2;P2;SDS_P1;SDS_P2;PMS_P1;PMS_P2;Temp;Humidity;BMP_temperature;BMP_pressure;BME280_temperature;BME280_humidity;BME280_pressure;Samples;Min_cycle;Max_cycle;Signal;HPM_P1;HPM_P2
2023/03/07 00:01:03;;;;;;;34.58;15.40;;;5.50;98.70;;;;;;5011896;28;20087;-72
2023/03/07 00:03:29;;;;;;;41.10;17.33;;;5.50;98.70;;;;;;5010890;28;20141;-72
2023/03/07 00:06:06;;;;;;;32.95;16.15;;;5.50;98.70;;;;;;5010246;28;20379;-74
2023/03/07 00:08:32;;;;;;;34.38;15.90;;;5.60;98.90;;;;;;5011755;28;20503;-73
2023/03/07 00:11:03;;;;;;;27.67;14.35;;;5.50;98.90;;;;;;5012675;28;20058;-72
2023/03/07 00:13:30;;;;;;;35.72;16.55;;;5.50;98.90;;;;;;5012767;28;20113;-73
2023/03/07 00:16:03;;;;;;;32.63;15.98;;;5.50;98.90;;;;;;5011471;28;20445;-73
2023/03/07 00:18:29;;;;;;;32.72;15.95;;;5.50;98.80;;;;;;5011317;28;20042;-73
2023/03/07 00:20:59;;;;;;;33.47;15.80;;;5.50;98.90;;;;;;5011004;28;20052;-72
2023/03/07 00:23:25;;;;;;;30.98;15.55;;;5.50;99.00;;;;;;5011613;28;20029;-73
2023/03/07 00:25:59;;;;;;;33.88;15.18;;;5.50;99.00;;;;;;5012322;28;20041;-73
2023/03/07 00:28:25;;;;;;;33.38;14.98;;;5.50;99.10;;;;;;5010997;28;20037;-74
2023/03/07 00:30:50;;;;;;;30.55;14.63;;;5.50;99.20;;;;;;5011015;28;20033;-72
2023/03/07 00:33:16;;;;;;;32.63;15.45;;;5.50;99.30;;;;;;5011887;28;20083;-72
2023/03/07 00:35:42;;;;;;;30.05;14.90;;;5.50;99.40;;;;;;5012401;28;20026;-72
2023/03/07 00:38:07;;;;;;;29.08;14.60;;;5.50;99.40;;;;;;5012271;28;20030;-73
2023/03/07 00:40:33;;;;;;;29.42;14.15;;;5.50;99.50;;;;;;5010518;28;20048;-72
2023/03/07 00:42:59;;;;;;;32.92;15.32;;;5.50;99.70;;;;;;5011123;28;20022;-72
2023/03/07 00:45:25;;;;;;;29.85;15.05;;;5.50;99.80;;;;;;5011798;28;20113;-72
2023/03/07 00:47:51;;;;;;;34.72;15.48;;;5.40;99.80;;;;;;5010427;28;20022;-73
2023/03/07 00:50:17;;;;;;;31.25;14.75;;;5.30;99.90;;;;;;5012108;28;20022;-71
2023/03/07 00:52:42;;;;;;;31.25;15.05;;;5.50;99.90;;;;;;5011264;28;20480;-72
2023/03/07 00:55:08;;;;;;;30.75;14.60;;;5.50;99.80;;;;;;5011393;28;20030;-72
2023/03/07 00:57:34;;;;;;;30.90;14.30;;;5.50;99.70;;;;;;5011253;28;20030;-72
2023/03/07 01:00:00;;;;;;;27.90;14.15;;;5.60;99.80;;;;;;5011396;28;20117;-73
2023/03/07 01:02:25;;;;;;;29.95;14.43;;;5.60;99.80;;;;;;5010956;28;20064;-73
2023/03/07 01:04:51;;;;;;;31.95;14.00;;;5.50;99.90;;;;;;5011130;28;20042;-73
2023/03/07 01:07:16;;;;;;;30.77;14.52;;;5.40;99.90;;;;;;5010306;28;20073;-73
2023/03/07 01:09:42;;;;;;;26.92;13.40;;;5.50;99.90;;;;;;5009688;28;20038;-73
2023/03/07 01:12:08;;;;;;;30.80;14.60;;;5.40;99.90;;;;;;5010887;28;20041;-72
2023/03/07 01:14:33;;;;;;;28.60;14.15;;;5.40;99.90;;;;;;5011889;28;20061;-73
2023/03/07 01:16:59;;;;;;;31.98;13.57;;;5.50;99.90;;;;;;5011665;28;20046;-74
2023/03/07 01:19:24;;;;;;;33.00;14.60;;;5.50;99.90;;;;;;5010055;28;20049;-74
2023/03/07 01:21:50;;;;;;;29.90;14.20;;;5.50;99.90;;;;;;5011117;28;20034;-74
2023/03/07 01:24:16;;;;;;;27.52;12.93;;;5.50;99.90;;;;;;5010814;28;20479;-73
2023/03/07 01:26:42;;;;;;;30.08;14.02;;;5.40;99.90;;;;;;5010033;28;20057;-73
2023/03/07 01:29:10;;;;;;;27.90;13.15;;;5.50;99.90;;;;;;5010467;28;20460;-73
2023/03/07 01:31:37;;;;;;;27.13;12.98;;;5.40;99.90;;;;;;5010907;28;20077;-73
2023/03/07 01:34:04;;;;;;;25.88;12.80;;;5.40;99.90;;;;;;5010798;28;20120;-73
2023/03/07 01:36:32;;;;;;;24.92;12.35;;;5.50;99.90;;;;;;5010658;28;20029;-73
2023/03/07 01:39:01;;;;;;;27.98;13.32;;;5.40;99.90;;;;;;5010838;28;20084;-74
2023/03/07 01:41:30;;;;;;;29.33;13.13;;;5.30;99.90;;;;;;5011035;28;20036;-74
2023/03/07 01:44:01;;;;;;;26.92;12.15;;;5.40;99.90;;;;;;5010620;28;20033;-74
2023/03/07 01:46:39;;;;;;;26.98;12.32;;;5.30;99.90;;;;;;5009415;28;20038;-73
2023/03/07 01:49:20;;;;;;;26.42;12.80;;;5.40;99.90;;;;;;5010665;28;20030;-73
2023/03/07 01:51:51;;;;;;;27.67;12.00;;;5.40;99.90;;;;;;5010552;28;20454;-73
2023/03/07 01:54:19;;;;;;;24.08;11.98;;;5.40;99.90;;;;;;5010981;28;20030;-73
2023/03/07 01:56:46;;;;;;;28.55;12.82;;;5.40;99.90;;;;;;5010883;28;20041;-74
2023/03/07 01:59:16;;;;;;;24.50;12.38;;;5.40;99.90;;;;;;5010478;28;20034;-73
2023/03/07 02:01:42;;;;;;;24.77;11.60;;;5.50;99.90;;;;;;5010706;28;20034;-73
2023/03/07 02:04:17;;;;;;;21.55;11.10;;;5.30;99.90;;;;;;5009631;28;20084;-73
2023/03/07 02:06:43;;;;;;;24.85;11.82;;;5.30;99.90;;;;;;5010687;28;20056;-73
2023/03/07 02:09:14;;;;;;;21.70;10.45;;;5.30;99.90;;;;;;5010356;28;20041;-73
2023/03/07 02:11:42;;;;;;;25.35;12.07;;;5.30;99.90;;;;;;5011058;28;20461;-72
2023/03/07 02:14:08;;;;;;;21.48;10.32;;;5.20;99.90;;;;;;5009434;28;20052;-73
2023/03/07 02:16:35;;;;;;;23.20;10.25;;;5.20;99.90;;;;;;5009502;28;20480;-72
2023/03/07 02:19:01;;;;;;;22.42;11.20;;;5.10;99.90;;;;;;5009595;28;20030;-72
2023/03/07 02:21:47;;;;;;;19.80;10.20;;;5.10;99.90;;;;;;5010958;28;20096;-72
2023/03/07 02:24:30;;;;;;;20.98;10.48;;;5.10;99.90;;;;;;5012843;28;20049;-72
2023/03/07 02:26:56;;;;;;;17.27;8.65;;;5.20;99.90;;;;;;5013445;28;20037;-73
2023/03/07 02:29:22;;;;;;;19.42;10.18;;;5.20;99.90;;;;;;5014784;28;20038;-73
2023/03/07 02:31:48;;;;;;;18.70;9.15;;;5.20;99.90;;;;;;5013969;28;20046;-73
2023/03/07 02:34:25;;;;;;;16.88;8.23;;;5.30;99.90;;;;;;5014435;28;20383;-73
2023/03/07 02:37:11;;;;;;;;;;;5.30;99.90;;;;;;5023218;28;20033;-72
2023/03/07 02:39:40;;;;;;;16.13;7.90;;;5.30;99.90;;;;;;5033727;28;19940;-73
2023/03/07 02:42:28;;;;;;;16.83;8.23;;;5.30;99.90;;;;;;5033007;28;20104;-73
2023/03/07 02:44:59;;;;;;;15.15;7.93;;;5.30;99.90;;;;;;5034466;28;20029;-73
2023/03/07 02:47:25;;;;;;;13.68;7.38;;;5.40;99.90;;;;;;5034754;28;20108;-72
2023/03/07 02:49:51;;;;;;;12.60;6.60;;;5.30;99.90;;;;;;5034221;28;20068;-72
2023/03/07 02:52:17;;;;;;;12.88;7.05;;;5.40;99.90;;;;;;5033884;28;20084;-73
2023/03/07 02:54:42;;;;;;;13.10;6.63;;;5.30;99.90;;;;;;5033653;28;20057;-73
2023/03/07 02:57:09;;;;;;;12.95;6.18;;;5.30;99.90;;;;;;5032890;28;20043;-73
2023/03/07 02:59:35;;;;;;;12.38;6.38;;;5.30;99.90;;;;;;5034458;28;20030;-73
2023/03/07 03:02:01;;;;;;;11.27;5.55;;;5.30;99.90;;;;;;5033748;28;20472;-73
2023/03/07 03:04:28;;;;;;;11.88;6.45;;;5.30;99.90;;;;;;5033524;28;20030;-74
2023/03/07 03:06:54;;;;;;;10.88;5.85;;;5.40;99.90;;;;;;5033206;28;20147;-73
2023/03/07 03:09:20;;;;;;;11.07;5.97;;;5.50;99.90;;;;;;5033089;28;20363;-73
2023/03/07 03:11:45;;;;;;;10.40;5.50;;;5.40;99.90;;;;;;5032478;28;20030;-73
2023/03/07 03:14:11;;;;;;;12.43;6.47;;;5.50;99.90;;;;;;5033354;28;20479;-73
2023/03/07 03:16:38;;;;;;;10.57;6.18;;;5.50;99.90;;;;;;5031939;28;20498;-73
2023/03/07 03:19:04;;;;;;;10.20;6.00;;;5.40;99.90;;;;;;5031964;28;20522;-73
2023/03/07 03:21:30;;;;;;;13.43;6.43;;;5.40;99.90;;;;;;5033215;28;20034;-73
2023/03/07 03:23:56;;;;;;;11.98;6.82;;;5.50;99.90;;;;;;5032893;28;20052;-72
2023/03/07 03:26:22;;;;;;;12.80;6.70;;;5.50;99.90;;;;;;5033719;28;20056;-73
2023/03/07 03:28:48;;;;;;;11.65;6.43;;;5.50;99.90;;;;;;5032609;28;20042;-73
2023/03/07 03:31:14;;;;;;;13.32;6.93;;;5.50;99.90;;;;;;5031846;28;20076;-73
2023/03/07 03:33:40;;;;;;;11.57;6.53;;;5.60;99.90;;;;;;5031751;28;20037;-74
2023/03/07 03:36:09;;;;;;;12.93;6.20;;;5.70;99.90;;;;;;5031947;28;20455;-74
2023/03/07 03:38:35;;;;;;;12.30;6.70;;;5.70;99.90;;;;;;5032261;28;20480;-73
2023/03/07 03:41:06;;;;;;;10.18;6.25;;;5.70;99.90;;;;;;5031695;28;20040;-73
2023/03/07 03:43:33;;;;;;;13.52;6.85;;;5.80;99.90;;;;;;5032821;28;20029;-74
2023/03/07 03:45:59;;;;;;;12.02;6.60;;;5.80;99.90;;;;;;5032595;28;20098;-73
2023/03/07 03:48:25;;;;;;;11.55;6.53;;;5.60;99.90;;;;;;5033081;28;20025;-73
2023/03/07 03:51:03;;;;;;;14.05;7.07;;;5.70;99.90;;;;;;5032431;28;20045;-72
2023/03/07 03:53:29;;;;;;;;;;;5.80;99.90;;;;;;5032568;28;20031;-73
2023/03/07 03:56:14;;;;;;;14.52;7.30;;;5.80;99.90;;;;;;5031227;28;19909;-74
2023/03/07 03:58:40;;;;;;;12.40;7.20;;;5.80;99.90;;;;;;5032589;28;20459;-73
2023/03/07 04:01:09;;;;;;;18.10;8.30;;;5.80;99.90;;;;;;5031349;28;20117;-73
2023/03/07 04:03:40;;;;;;;13.93;6.97;;;5.80;99.90;;;;;;5032455;28;20040;-72
2023/03/07 04:06:12;;;;;;;14.05;8.23;;;5.90;99.90;;;;;;5031242;28;20086;-72
2023/03/07 04:08:38;;;;;;;12.45;7.53;;;5.90;99.90;;;;;;5032664;28;20479;-74
2023/03/07 04:11:04;;;;;;;13.55;6.90;;;5.90;99.90;;;;;;5032118;28;20091;-74
2023/03/07 04:13:34;;;;;;;14.57;7.35;;;5.90;99.90;;;;;;5031051;28;20109;-74
2023/03/07 04:16:00;;;;;;;13.63;7.90;;;6.10;99.90;;;;;;5030788;28;20025;-74
2023/03/07 04:18:26;;;;;;;13.25;7.30;;;6.10;99.90;;;;;;5031130;28;20049;-74
2023/03/07 04:20:52;;;;;;;13.80;7.25;;;6.00;99.90;;;;;;5031914;28;20060;-74
2023/03/07 04:23:19;;;;;;;11.77;7.60;;;6.00;99.90;;;;;;5032293;28;20033;-72
2023/03/07 04:25:49;;;;;;;12.02;7.07;;;6.00;99.90;;;;;;5032027;28;20029;-72
2023/03/07 04:28:16;;;;;;;11.85;7.45;;;6.10;99.90;;;;;;5031537;28;20029;-73
2023/03/07 04:30:42;;;;;;;12.93;7.15;;;6.00;99.90;;;;;;5031526;28;20111;-73
2023/03/07 04:33:08;;;;;;;12.93;7.10;;;6.10;99.90;;;;;;5031421;28;20029;-73
2023/03/07 04:35:33;;;;;;;13.98;8.02;;;6.20;99.90;;;;;;5030860;28;20368;-72
2023/03/07 04:37:59;;;;;;;11.05;7.20;;;6.20;99.90;;;;;;5031642;28;20413;-74
2023/03/07 04:40:24;;;;;;;13.60;7.18;;;6.10;99.90;;;;;;5031285;28;20029;-74
2023/03/07 04:42:50;;;;;;;12.30;7.60;;;6.20;99.90;;;;;;5031320;28;20448;-73
2023/03/07 04:45:16;;;;;;;13.70;8.18;;;6.20;99.90;;;;;;5031296;28;20070;-74
2023/03/07 04:47:41;;;;;;;14.45;8.27;;;6.20;99.90;;;;;;5029702;28;20025;-73
2023/03/07 04:50:09;;;;;;;15.50;8.52;;;6.20;99.90;;;;;;5030055;28;20025;-74
2023/03/07 04:52:35;;;;;;;15.88;8.70;;;6.30;99.90;;;;;;5031101;28;20033;-74
2023/03/07 04:55:01;;;;;;;13.48;7.97;;;6.30;99.90;;;;;;5031078;28;20029;-74
2023/03/07 04:57:26;;;;;;;15.48;8.98;;;6.50;99.90;;;;;;5031028;28;20044;-75
2023/03/07 04:59:52;;;;;;;16.02;8.77;;;6.60;99.90;;;;;;5030725;28;20037;-74
2023/03/07 05:02:18;;;;;;;13.05;7.68;;;6.50;99.90;;;;;;5031672;28;20136;-73
2023/03/07 05:04:43;;;;;;;13.88;8.10;;;6.40;99.90;;;;;;5031383;28;20053;-74
2023/03/07 05:07:09;;;;;;;13.57;7.38;;;6.40;99.90;;;;;;5029546;28;20040;-74
2023/03/07 05:09:35;;;;;;;9.70;6.13;;;6.40;99.90;;;;;;5029553;28;20111;-73
2023/03/07 05:12:00;;;;;;;8.30;5.47;;;6.20;99.90;;;;;;5030910;28;20120;-73
2023/03/07 05:14:26;;;;;;;6.30;4.18;;;6.10;99.90;;;;;;5031576;28;20096;-74
2023/03/07 05:16:52;;;;;;;7.20;4.30;;;6.00;99.90;;;;;;5029777;28;20061;-74
2023/03/07 05:19:18;;;;;;;6.63;3.28;;;5.70;99.90;;;;;;5030847;28;20038;-73
2023/03/07 05:21:43;;;;;;;5.95;3.13;;;5.30;99.90;;;;;;5029561;28;20037;-72
2023/03/07 05:24:09;;;;;;;7.03;3.35;;;5.20;99.90;;;;;;5030501;28;20034;-74
2023/03/07 05:26:35;;;;;;;7.38;3.47;;;5.30;99.90;;;;;;5029824;28;20017;-75
2023/03/07 05:29:01;;;;;;;5.60;3.00;;;5.30;99.90;;;;;;5030474;28;20434;-73
2023/03/07 05:31:27;;;;;;;6.35;3.15;;;5.20;99.90;;;;;;5029296;28;20096;-74
2023/03/07 05:33:53;;;;;;;6.65;2.75;;;5.20;99.90;;;;;;5030640;28;20057;-73
2023/03/07 05:36:19;;;;;;;6.85;2.50;;;5.10;99.90;;;;;;5030459;28;20099;-74
2023/03/07 05:38:44;;;;;;;4.40;2.33;;;5.10;99.90;;;;;;5030740;28;20033;-72
2023/03/07 05:41:11;;;;;;;3.90;1.98;;;5.10;99.90;;;;;;5030397;28;20040;-73
2023/03/07 05:43:37;;;;;;;6.53;1.60;;;5.20;99.90;;;;;;5030288;28;20037;-73
2023/03/07 05:46:03;;;;;;;3.55;1.85;;;5.00;99.90;;;;;;5030345;28;20088;-73
2023/03/07 05:48:29;;;;;;;7.93;1.48;;;5.10;99.90;;;;;;5029345;28;20425;-72
2023/03/07 05:50:59;;;;;;;8.10;1.20;;;5.10;99.90;;;;;;5030194;28;20030;-71
2023/03/07 05:53:24;;;;;;;2.97;1.02;;;5.10;99.90;;;;;;5030663;28;20498;-72
2023/03/07 05:55:50;;;;;;;5.28;1.05;;;5.20;99.90;;;;;;5029049;28;20026;-73
2023/03/07 05:58:16;;;;;;;5.47;0.80;;;5.30;99.90;;;;;;5030631;28;20136;-73
2023/03/07 06:00:41;;;;;;;3.60;0.73;;;5.20;99.90;;;;;;5034284;28;20095;-73
2023/03/07 06:03:07;;;;;;;5.55;1.00;;;5.20;99.90;;;;;;5034323;28;20037;-73
2023/03/07 06:05:33;;;;;;;3.80;1.00;;;5.20;99.90;;;;;;5033735;28;20022;-74
2023/03/07 06:07:59;;;;;;;9.77;0.88;;;5.40;99.90;;;;;;5034510;28;20064;-74
2023/03/07 06:10:24;;;;;;;4.80;1.10;;;5.20;99.90;;;;;;5034263;28;20040;-72
2023/03/07 06:12:52;;;;;;;8.55;1.00;;;5.20;99.90;;;;;;5034180;28;20036;-72
2023/03/07 06:15:18;;;;;;;3.27;1.13;;;5.20;99.90;;;;;;5032776;28;20075;-72
2023/03/07 06:17:44;;;;;;;5.95;1.05;;;5.30;99.90;;;;;;5033639;28;20262;-72
2023/03/07 06:20:11;;;;;;;7.32;1.58;;;5.30;99.90;;;;;;5034869;28;20029;-73
2023/03/07 06:22:37;;;;;;;5.28;0.57;;;5.40;99.90;;;;;;5033029;28;20139;-74
2023/03/07 06:25:07;;;;;;;3.33;1.00;;;5.50;99.90;;;;;;5033799;28;20468;-72
2023/03/07 06:27:34;;;;;;;4.80;1.30;;;5.50;99.90;;;;;;5027171;28;20037;-72
2023/03/07 06:30:00;;;;;;;2.13;0.80;;;5.60;99.90;;;;;;5014214;28;20461;-75
2023/03/07 06:32:25;;;;;;;4.35;0.82;;;5.70;99.90;;;;;;5013776;28;20041;-72
2023/03/07 06:34:51;;;;;;;6.28;1.10;;;5.70;99.90;;;;;;5014509;28;20464;-74
2023/03/07 06:37:17;;;;;;;5.63;1.05;;;5.70;99.90;;;;;;5019266;28;20496;-72
2023/03/07 06:39:42;;;;;;;7.32;1.20;;;5.80;99.90;;;;;;5034031;28;20385;-73
2023/03/07 06:42:08;;;;;;;7.13;1.20;;;5.80;99.90;;;;;;5033738;28;20144;-73
2023/03/07 06:44:34;;;;;;;6.10;1.40;;;5.80;99.90;;;;;;5033215;28;20205;-73
2023/03/07 06:47:00;;;;;;;6.03;1.10;;;5.80;99.90;;;;;;5033003;28;20080;-74
2023/03/07 06:49:25;;;;;;;3.92;1.50;;;5.90;99.90;;;;;;5034051;28;20536;-72
2023/03/07 06:51:51;;;;;;;4.18;1.05;;;5.90;99.90;;;;;;5025639;28;20052;-74
2023/03/07 06:54:17;;;;;;;8.35;1.45;;;5.80;99.90;;;;;;5013882;28;20040;-73
2023/03/07 06:56:43;;;;;;;6.38;1.30;;;6.00;99.90;;;;;;5013152;28;20464;-71
2023/03/07 06:59:10;;;;;;;3.58;1.45;;;6.00;99.90;;;;;;5014003;28;20109;-73
2023/03/07 07:01:36;;;;;;;4.53;1.33;;;6.10;99.90;;;;;;5006446;28;20039;-72
2023/03/07 07:04:02;;;;;;;3.63;1.20;;;5.80;99.90;;;;;;5004255;28;20034;-72
2023/03/07 07:06:28;;;;;;;6.10;1.08;;;5.90;99.90;;;;;;5013706;28;20029;-73
2023/03/07 07:08:55;;;;;;;4.95;1.25;;;5.90;99.90;;;;;;5013488;28;20037;-72
2023/03/07 07:11:22;;;;;;;8.98;1.83;;;6.00;99.90;;;;;;5012904;28;20448;-72
2023/03/07 07:13:49;;;;;;;3.30;0.85;;;6.10;99.90;;;;;;5013505;28;20136;-72
2023/03/07 07:16:16;;;;;;;8.95;1.10;;;6.20;99.30;;;;;;5013367;28;20388;-72
2023/03/07 07:18:42;;;;;;;4.22;1.40;;;6.10;99.20;;;;;;5013759;28;20284;-73
2023/03/07 07:21:08;;;;;;;3.75;1.20;;;6.20;99.20;;;;;;5029257;28;20030;-72
2023/03/07 07:23:33;;;;;;;3.17;0.98;;;6.20;99.00;;;;;;5012990;28;20109;-71
2023/03/07 07:25:59;;;;;;;8.05;1.48;;;6.10;98.70;;;;;;5028475;28;20065;-71
2023/03/07 07:28:25;;;;;;;5.53;0.98;;;6.20;98.80;;;;;;5012750;28;20088;-71
2023/03/07 07:30:50;;;;;;;4.03;1.05;;;6.20;98.80;;;;;;5012942;28;20040;-71
2023/03/07 07:33:16;;;;;;;4.65;1.15;;;6.20;98.60;;;;;;5008350;28;20461;-70
2023/03/07 07:35:43;;;;;;;3.10;1.23;;;6.20;98.10;;;;;;4993967;28;20030;-70
2023/03/07 07:38:09;;;;;;;2.05;1.10;;;6.10;97.60;;;;;;5012713;28;20042;-71
2023/03/07 07:40:35;;;;;;;3.97;1.38;;;6.10;98.00;;;;;;5012806;28;20471;-70
2023/03/07 07:43:00;;;;;;;9.25;1.30;;;6.20;98.20;;;;;;5012904;28;20121;-71
2023/03/07 07:45:26;;;;;;;6.15;1.33;;;6.20;98.00;;;;;;5012836;28;20041;-71
2023/03/07 07:47:51;;;;;;;9.73;2.00;;;6.10;98.30;;;;;;5011511;28;20022;-71
2023/03/07 07:50:19;;;;;;;4.07;1.27;;;6.10;98.60;;;;;;5013023;28;20014;-70
2023/03/07 07:52:45;;;;;;;5.53;1.55;;;6.10;98.50;;;;;;5012781;28;20559;-70
2023/03/07 07:55:15;;;;;;;5.20;1.52;;;6.20;98.60;;;;;;5012898;28;20041;-72
2023/03/07 07:57:41;;;;;;;5.72;1.33;;;6.10;98.80;;;;;;5012870;28;20038;-71
2023/03/07 08:00:09;;;;;;;5.22;1.52;;;6.00;99.00;;;;;;5012625;28;20022;-71
2023/03/07 08:02:36;;;;;;;8.82;1.73;;;6.00;99.40;;;;;;5013167;28;20113;-71
2023/03/07 08:05:03;;;;;;;8.95;1.80;;;6.10;99.40;;;;;;5012373;28;20088;-69
2023/03/07 08:07:29;;;;;;;10.95;2.13;;;6.00;99.50;;;;;;5012489;28;20048;-71
2023/03/07 08:09:55;;;;;;;10.57;2.38;;;6.10;99.60;;;;;;5012258;28;20038;-70
2023/03/07 08:12:20;;;;;;;4.22;1.58;;;6.10;99.60;;;;;;5011007;28;20484;-71
2023/03/07 08:14:46;;;;;;;5.10;1.58;;;6.10;99.60;;;;;;5012707;28;20057;-70
2023/03/07 08:17:11;;;;;;;4.57;1.65;;;6.10;99.60;;;;;;5011344;28;20057;-71
2023/03/07 08:19:37;;;;;;;4.10;1.60;;;6.10;99.40;;;;;;5012329;28;20041;-71
2023/03/07 08:22:03;;;;;;;2.42;1.27;;;6.10;99.20;;;;;;5011000;28;20038;-71
2023/03/07 08:24:31;;;;;;;5.85;1.52;;;6.00;99.10;;;;;;5012190;28;20042;-72
2023/03/07 08:26:57;;;;;;;5.65;1.98;;;6.00;99.30;;;;;;5011014;28;20520;-70
2023/03/07 08:29:22;;;;;;;5.05;1.50;;;6.10;99.30;;;;;;5011287;28;20136;-72
2023/03/07 08:31:50;;;;;;;6.70;1.67;;;5.80;99.70;;;;;;5012090;28;20046;-70
2023/03/07 08:34:17;;;;;;;5.07;1.35;;;6.00;99.80;;;;;;5011966;28;20460;-72
2023/03/07 08:36:42;;;;;;;6.03;1.27;;;5.90;99.90;;;;;;5011971;28;20042;-71
2023/03/07 08:39:08;;;;;;;3.33;1.20;;;5.80;99.90;;;;;;5012065;28;20412;-71
2023/03/07 08:41:34;;;;;;;9.73;1.75;;;6.00;99.70;;;;;;5012524;28;20040;-70
2023/03/07 08:43:59;;;;;;;6.13;1.50;;;5.90;99.70;;;;;;5010649;28;20464;-70
2023/03/07 08:46:25;;;;;;;11.27;4.38;;;6.10;99.90;;;;;;5012000;28;20407;-71
2023/03/07 08:48:51;;;;;;;5.65;1.10;;;6.00;99.70;;;;;;5012015;28;20552;-72
2023/03/07 08:51:17;;;;;;;3.08;1.10;;;6.00;99.60;;;;;;5010726;28;20384;-71
2023/03/07 08:53:44;;;;;;;6.75;0.90;;;6.00;99.50;;;;;;5011157;28;20030;-71
2023/03/07 08:56:13;;;;;;;8.00;1.80;;;5.70;99.90;;;;;;5011680;28;20069;-71
2023/03/07 08:58:39;;;;;;;9.23;1.55;;;5.60;99.90;;;;;;5011767;28;20472;-70
2023/03/07 09:01:07;;;;;;;4.22;0.82;;;5.70;99.90;;;;;;5011833;28;20030;-71
2023/03/07 09:03:33;;;;;;;8.73;0.97;;;5.60;99.90;;;;;;5012166;28;20030;-71
2023/03/07 09:05:59;;;;;;;10.02;1.13;;;5.50;99.90;;;;;;5010569;28;20041;-71
2023/03/07 09:08:25;;;;;;;3.55;0.95;;;5.40;99.90;;;;;;5012042;28;20452;-70
2023/03/07 09:10:51;;;;;;;3.67;0.77;;;5.30;99.90;;;;;;5011492;28;20034;-71
2023/03/07 09:13:17;;;;;;;11.63;1.00;;;5.40;99.90;;;;;;5011611;28;20341;-70
2023/03/07 09:15:43;;;;;;;5.70;1.00;;;5.50;99.90;;;;;;5010307;28;20368;-72
2023/03/07 09:18:09;;;;;;;4.38;0.88;;;5.40;99.90;;;;;;5011658;28;20018;-71
2023/03/07 09:20:37;;;;;;;6.35;1.35;;;5.30;99.90;;;;;;5011868;28;20463;-71
2023/03/07 09:23:03;;;;;;;7.78;1.10;;;5.30;99.90;;;;;;5011498;28;20037;-70
2023/03/07 09:25:29;;;;;;;5.72;0.90;;;5.20;99.90;;;;;;5011361;28;20030;-71
2023/03/07 09:27:55;;;;;;;19.50;6.28;;;5.30;99.90;;;;;;5011259;28;20095;-71
2023/03/07 09:30:21;;;;;;;40.83;17.13;;;5.10;99.90;;;;;;5011146;28;20117;-71
2023/03/07 09:32:48;;;;;;;8.48;1.83;;;5.10;99.90;;;;;;5011853;28;20026;-70
2023/03/07 09:35:14;;;;;;;2.75;0.90;;;5.00;99.90;;;;;;5010600;28;20054;-70
2023/03/07 09:37:40;;;;;;;7.68;1.10;;;5.00;99.90;;;;;;5012264;28;20128;-70
2023/03/07 09:40:06;;;;;;;8.20;1.02;;;5.10;99.90;;;;;;5012398;28;20038;-71
2023/03/07 09:43:06;;;;;;;9.05;1.88;;;5.00;99.90;;;;;;5012644;28;20022;-69
2023/03/07 09:45:41;;;;;;;5.28;1.00;;;4.80;99.90;;;;;;5012064;28;20430;-70
2023/03/07 09:48:06;;;;;;;5.80;1.33;;;5.00;99.90;;;;;;5011971;28;20332;-70
2023/03/07 09:50:57;;;;;;;5.78;1.17;;;5.10;99.90;;;;;;5012866;28;20033;-70
2023/03/07 09:53:22;;;;;;;7.28;1.13;;;4.90;99.90;;;;;;5011888;28;20042;-71
2023/03/07 09:55:51;;;;;;;3.00;0.85;;;5.00;99.90;;;;;;5009925;28;20030;-70
2023/03/07 09:58:22;;;;;;;3.75;0.90;;;5.10;99.90;;;;;;5010989;28;20464;-70
2023/03/07 10:00:54;;;;;;;1.70;0.77;;;5.10;99.90;;;;;;5011207;28;20044;-70
2023/03/07 10:03:45;;;;;;;5.70;1.15;;;5.10;99.90;;;;;;5009992;28;20467;-70
2023/03/07 10:06:25;;;;;;;2.13;0.70;;;5.20;99.90;;;;;;5010804;28;20073;-69
2023/03/07 10:08:52;;;;;;;1.50;0.77;;;5.30;99.90;;;;;;5010273;28;20117;-71
2023/03/07 10:11:26;;;;;;;4.30;1.02;;;5.30;99.90;;;;;;5011909;28;20069;-69
2023/03/07 10:14:02;;;;;;;3.92;1.00;;;5.00;99.90;;;;;;5012275;28;20121;-71
2023/03/07 10:16:51;;;;;;;6.20;1.25;;;5.00;99.90;;;;;;5012382;28;20582;-70
2023/03/07 10:19:34;;;;;;;3.83;0.90;;;5.00;99.90;;;;;;5012562;28;20378;-71
2023/03/07 10:22:26;;;;;;;1.35;0.90;;;5.10;99.90;;;;;;5011909;28;20073;-70
2023/03/07 10:25:25;;;;;;;3.95;0.95;;;5.20;99.90;;;;;;5011373;28;20476;-71
2023/03/07 10:27:55;;;;;;;6.90;1.20;;;5.20;99.90;;;;;;5011557;28;20034;-69
2023/03/07 10:30:22;;;;;;;2.35;1.00;;;5.30;99.90;;;;;;5012038;28;20034;-71
2023/03/07 10:32:54;;;;;;;2.53;0.70;;;5.20;99.90;;;;;;5011152;28;20041;-70
2023/03/07 10:35:36;;;;;;;3.35;0.60;;;5.10;99.90;;;;;;5011511;28;20495;-70
2023/03/07 10:38:22;;;;;;;3.65;0.95;;;5.10;99.90;;;;;;5011327;28;20026;-70
2023/03/07 10:41:21;;;;;;;2.55;1.00;;;5.30;99.90;;;;;;5011594;28;20341;-70
2023/03/07 10:43:48;;;;;;;3.67;1.00;;;5.10;99.90;;;;;;5011050;28;20034;-70
2023/03/07 10:46:18;;;;;;;5.03;1.20;;;5.20;99.90;;;;;;5014584;28;20487;-70
2023/03/07 10:49:14;;;;;;;4.30;0.98;;;5.20;99.90;;;;;;5015171;28;20480;-71
2023/03/07 10:52:16;;;;;;;2.90;0.90;;;5.10;99.90;;;;;;5014172;28;20525;-69
2023/03/07 10:54:41;;;;;;;4.57;1.90;;;5.10;99.90;;;;;;5015546;28;20120;-70
2023/03/07 10:57:15;;;;;;;6.25;0.90;;;5.20;99.90;;;;;;5014850;28;20116;-71
2023/03/07 10:59:43;;;;;;;6.03;1.58;;;4.90;99.90;;;;;;5015431;28;20444;-70
2023/03/07 11:02:24;;;;;;;2.40;0.75;;;5.00;99.90;;;;;;5015108;28;20041;-70
2023/03/07 11:04:51;;;;;;;3.10;0.70;;;5.20;99.90;;;;;;5013397;28;20026;-71
2023/03/07 11:07:34;;;;;;;2.17;0.88;;;5.10;99.90;;;;;;5013819;28;20030;-70
2023/03/07 11:10:21;;;;;;;6.35;1.02;;;5.30;99.90;;;;;;5013636;28;20288;-71
2023/03/07 11:12:47;;;;;;;3.17;1.30;;;5.10;99.90;;;;;;5013600;28;20728;-70
2023/03/07 11:15:23;;;;;;;1.83;1.10;;;5.20;99.90;;;;;;5013558;28;20057;-71
2023/03/07 11:17:50;;;;;;;2.90;1.20;;;5.40;99.90;;;;;;5013883;28;20030;-70
2023/03/07 11:20:33;;;;;;;3.83;1.20;;;5.40;99.90;;;;;;5014105;28;20017;-73
2023/03/07 11:23:22;;;;;;;4.18;1.08;;;5.50;99.90;;;;;;5013401;28;20259;-71
2023/03/07 11:25:48;;;;;;;6.38;1.20;;;5.50;99.90;;;;;;5013663;28;20026;-71
2023/03/07 11:28:25;;;;;;;4.88;1.70;;;5.50;99.90;;;;;;5013263;28;20057;-70
2023/03/07 11:31:13;;;;;;;7.30;1.33;;;5.60;99.90;;;;;;5013423;28;20434;-73
2023/03/07 11:34:01;;;;;;;6.40;1.48;;;5.30;99.90;;;;;;5013328;28;20057;-72
2023/03/07 11:36:33;;;;;;;4.40;1.10;;;5.20;99.90;;;;;;5013167;28;20412;-73
2023/03/07 11:39:18;;;;;;;1.75;0.77;;;5.30;99.90;;;;;;5013200;28;20029;-71
2023/03/07 11:42:02;;;;;;;5.35;2.53;;;5.30;99.90;;;;;;5013712;28;20057;-73
2023/03/07 11:44:34;;;;;;;3.35;1.00;;;5.20;99.90;;;;;;5013172;28;20484;-71
2023/03/07 11:47:20;;;;;;;4.32;1.20;;;5.40;99.90;;;;;;5012793;28;20045;-73
2023/03/07 11:50:05;;;;;;;6.25;1.48;;;5.40;99.90;;;;;;5011951;28;20523;-72
2023/03/07 11:53:00;;;;;;;4.32;1.15;;;5.50;99.90;;;;;;5012950;28;20096;-70
2023/03/07 11:55:39;;;;;;;1.90;0.80;;;5.40;99.90;;;;;;5012805;28;20033;-71
2023/03/07 11:58:42;;;;;;;4.20;1.10;;;5.60;99.90;;;;;;5011098;28;20426;-70
2023/03/07 12:01:41;;;;;;;2.60;1.20;;;5.60;99.90;;;;;;5012482;28;20026;-71
2023/03/07 12:04:25;;;;;;;4.05;1.20;;;5.60;99.90;;;;;;5011648;28;20112;-71
2023/03/07 12:07:02;;;;;;;1.13;0.82;;;5.70;99.90;;;;;;5012646;28;20199;-70
2023/03/07 12:09:28;;;;;;;2.55;1.15;;;5.80;99.90;;;;;;5012677;28;20516;-71
2023/03/07 12:12:09;;;;;;;2.78;1.10;;;5.80;99.90;;;;;;5011511;28;20187;-71
2023/03/07 12:14:41;;;;;;;4.53;1.23;;;5.90;99.90;;;;;;5011842;28;20477;-72
2023/03/07 12:17:06;;;;;;;1.73;1.00;;;6.10;99.90;;;;;;5012487;28;20026;-71
2023/03/07 12:19:52;;;;;;;2.67;1.15;;;5.90;99.90;;;;;;5011415;28;20527;-72
2023/03/07 12:22:34;;;;;;;1.50;1.20;;;5.90;99.90;;;;;;5011361;28;20041;-71
2023/03/07 12:25:06;;;;;;;4.57;1.52;;;6.00;99.90;;;;;;5012320;28;20045;-72
2023/03/07 12:27:59;;;;;;;3.67;1.67;;;6.10;99.90;;;;;;5011099;28;20062;-71
2023/03/07 12:30:43;;;;;;;3.70;1.10;;;6.00;99.90;;;;;;5001002;28;20145;-70
2023/03/07 12:33:30;;;;;;;3.45;1.70;;;6.10;99.90;;;;;;5012202;28;20077;-70
2023/03/07 12:36:02;;;;;;;2.38;0.90;;;6.30;99.90;;;;;;5011483;28;20030;-71
2023/03/07 12:38:36;;;;;;;5.22;1.75;;;6.10;99.90;;;;;;5013117;28;20684;-72
2023/03/07 12:41:34;;;;;;;1.95;0.90;;;6.40;99.90;;;;;;5013080;28;20078;-72
2023/03/07 12:44:07;;;;;;;4.65;1.40;;;6.40;99.90;;;;;;5012788;28;20371;-72
2023/03/07 12:47:00;;;;;;;2.40;1.02;;;6.10;99.90;;;;;;5013247;28;20092;-72
2023/03/07 12:49:51;;;;;;;5.25;1.30;;;6.10;99.90;;;;;;5013441;28;20303;-71
2023/03/07 12:52:34;;;;;;;1.58;0.85;;;6.30;99.90;;;;;;5013017;28;20480;-73
2023/03/07 12:55:29;;;;;;;8.23;2.42;;;6.10;99.90;;;;;;5012931;28;20450;-71
2023/03/07 12:58:07;;;;;;;6.15;1.27;;;6.20;99.90;;;;;;5011645;28;20038;-72
2023/03/07 13:00:39;;;;;;;8.98;2.30;;;6.20;99.90;;;;;;5013015;28;20060;-71
2023/03/07 13:03:05;;;;;;;5.55;2.08;;;6.30;99.90;;;;;;5013589;28;20022;-72
2023/03/07 13:05:35;;;;;;;6.40;1.73;;;6.30;99.90;;;;;;5011915;28;20034;-72